sensor_id;sensor_type;location;lat;lon;timestamp;P1;durP1;ratioP1;P2;durP2;ratioP2
2976;SDS011;1498;51.500;7.440;2023-01-08T00:02:13;2.97;;;2.57;;
2976;SDS011;1498;51.500;7.440;2023-01-08T00:04:38;2.97;;;2.43;;
2976;SDS011;1498;51.500;7.440;2023-01-08T00:07:04;3.70;;;2.40;;
2976;SDS011;1498;51.500;7.440;2023-01-08T00:09:29;4.33;;;3.93;;
2976;SDS011;1498;51.500;7.440;2023-01-08T00:11:55;6.87;;;2.60;;
2976;SDS011;1498;51.500;7.440;2023-01-08T00:14:20;5.50;;;1.90;;
2976;SDS011;1498;51.500;7.440;2023-01-08T00:16:46;4.33;;;2.60;;
2976;SDS011;1498;51.500;7.440;2023-01-08T00:19:11;2.30;;;2.10;;
2976;SDS011;1498;51.500;7.440;2023-01-08T00:21:37;3.20;;;2.33;;
2976;SDS011;1498;51.500;7.440;2023-01-08T00:24:03;2.10;;;1.90;;
2976;SDS011;1498;51.500;7.440;2023-01-08T00:26:29;3.43;;;2.00;;
2976;SDS011;1498;51.500;7.440;2023-01-08T00:28:55;3.23;;;2.33;;
2976;SDS011;1498;51.500;7.440;2023-01-08T00:31:20;2.43;;;1.70;;
2976;SDS011;1498;51.500;7.440;2023-01-08T00:33:46;2.70;;;2.50;;
2976;SDS011;1498;51.500;7.440;2023-01-08T00:36:12;2.80;;;1.77;;
2976;SDS011;1498;51.500;7.440;2023-01-08T00:38:41;3.00;;;2.07;;
2976;SDS011;1498;51.500;7.440;2023-01-08T00:41:07;9.67;;;2.87;;
2976;SDS011;1498;51.500;7.440;2023-01-08T00:43:33;1.70;;;1.60;;
2976;SDS011;1498;51.500;7.440;2023-01-08T00:45:58;3.10;;;2.40;;
2976;SDS011;1498;51.500;7.440;2023-01-08T00:48:24;2.30;;;2.10;;
2976;SDS011;1498;51.500;7.440;2023-01-08T00:50:50;2.40;;;2.20;;
2976;SDS011;1498;51.500;7.440;2023-01-08T00:53:17;4.10;;;1.87;;
2976;SDS011;1498;51.500;7.440;2023-01-08T00:55:43;3.10;;;2.03;;
2976;SDS011;1498;51.500;7.440;2023-01-08T00:58:09;2.60;;;2.23;;
2976;SDS011;1498;51.500;7.440;2023-01-08T01:00:35;2.47;;;2.23;;
2976;SDS011;1498;51.500;7.440;2023-01-08T01:03:00;2.73;;;2.43;;
2976;SDS011;1498;51.500;7.440;2023-01-08T01:05:26;3.80;;;2.10;;
2976;SDS011;1498;51.500;7.440;2023-01-08T01:07:51;2.43;;;2.00;;
2976;SDS011;1498;51.500;7.440;2023-01-08T01:10:17;3.13;;;2.03;;
2976;SDS011;1498;51.500;7.440;2023-01-08T01:12:43;5.30;;;2.20;;
2976;SDS011;1498;51.500;7.440;2023-01-08T01:15:10;2.87;;;2.13;;
2976;SDS011;1498;51.500;7.440;2023-01-08T01:17:38;3.43;;;1.93;;
2976;SDS011;1498;51.500;7.440;2023-01-08T01:20:05;3.67;;;2.20;;
2976;SDS011;1498;51.500;7.440;2023-01-08T01:22:32;2.40;;;2.00;;
2976;SDS011;1498;51.500;7.440;2023-01-08T01:24:58;2.47;;;1.90;;
2976;SDS011;1498;51.500;7.440;2023-01-08T01:27:24;4.10;;;1.70;;
2976;SDS011;1498;51.500;7.440;2023-01-08T01:29:50;4.23;;;1.93;;
2976;SDS011;1498;51.500;7.440;2023-01-08T05:32:38;1.27;;;1.17;;
2976;SDS011;1498;51.500;7.440;2023-01-08T05:35:04;2.60;;;1.77;;
2976;SDS011;1498;51.500;7.440;2023-01-08T05:37:30;4.83;;;1.57;;
2976;SDS011;1498;51.500;7.440;2023-01-08T05:39:58;1.70;;;1.50;;
2976;SDS011;1498;51.500;7.440;2023-01-08T05:42:23;1.60;;;1.33;;
2976;SDS011;1498;51.500;7.440;2023-01-08T05:44:49;4.00;;;1.33;;
2976;SDS011;1498;51.500;7.440;2023-01-08T05:47:14;2.07;;;1.50;;
2976;SDS011;1498;51.500;7.440;2023-01-08T05:49:39;1.60;;;1.30;;
2976;SDS011;1498;51.500;7.440;2023-01-08T05:52:05;1.40;;;1.30;;
2976;SDS011;1498;51.500;7.440;2023-01-08T05:54:31;2.17;;;1.43;;
2976;SDS011;1498;51.500;7.440;2023-01-08T05:56:56;1.97;;;1.53;;
2976;SDS011;1498;51.500;7.440;2023-01-08T05:59:22;1.40;;;1.30;;
2976;SDS011;1498;51.500;7.440;2023-01-08T06:01:47;3.73;;;1.60;;
2976;SDS011;1498;51.500;7.440;2023-01-08T06:04:13;1.03;;;0.93;;
2976;SDS011;1498;51.500;7.440;2023-01-08T06:06:38;1.80;;;1.30;;
2976;SDS011;1498;51.500;7.440;2023-01-08T06:09:04;1.87;;;1.53;;
2976;SDS011;1498;51.500;7.440;2023-01-08T06:11:29;1.80;;;1.43;;
2976;SDS011;1498;51.500;7.440;2023-01-08T06:13:55;2.23;;;1.30;;
2976;SDS011;1498;51.500;7.440;2023-01-08T06:16:20;1.80;;;1.20;;
2976;SDS011;1498;51.500;7.440;2023-01-08T06:18:46;1.40;;;1.20;;
2976;SDS011;1498;51.500;7.440;2023-01-08T06:21:11;1.30;;;1.10;;
2976;SDS011;1498;51.500;7.440;2023-01-08T06:23:37;2.03;;;1.20;;
2976;SDS011;1498;51.500;7.440;2023-01-08T06:26:03;4.40;;;1.20;;
2976;SDS011;1498;51.500;7.440;2023-01-08T06:28:29;1.50;;;1.30;;
2976;SDS011;1498;51.500;7.440;2023-01-08T06:30:58;1.30;;;1.20;;
2976;SDS011;1498;51.500;7.440;2023-01-08T06:33:25;4.37;;;1.53;;
2976;SDS011;1498;51.500;7.440;2023-01-08T06:35:50;1.90;;;1.30;;
2976;SDS011;1498;51.500;7.440;2023-01-08T06:38:16;1.27;;;1.07;;
2976;SDS011;1498;51.500;7.440;2023-01-08T06:40:45;1.33;;;1.10;;
2976;SDS011;1498;51.500;7.440;2023-01-08T06:43:12;1.57;;;1.13;;
2976;SDS011;1498;51.500;7.440;2023-01-08T06:45:38;1.63;;;1.30;;
2976;SDS011;1498;51.500;7.440;2023-01-08T06:48:04;2.10;;;1.20;;
2976;SDS011;1498;51.500;7.440;2023-01-08T06:50:30;1.23;;;0.90;;
2976;SDS011;1498;51.500;7.440;2023-01-08T06:52:57;1.10;;;0.83;;
2976;SDS011;1498;51.500;7.440;2023-01-08T06:55:23;1.60;;;1.50;;
2976;SDS011;1498;51.500;7.440;2023-01-08T06:57:55;1.40;;;1.27;;
2976;SDS011;1498;51.500;7.440;2023-01-08T07:00:22;1.00;;;0.90;;
2976;SDS011;1498;51.500;7.440;2023-01-08T07:02:50;1.60;;;1.20;;
2976;SDS011;1498;51.500;7.440;2023-01-08T07:05:16;1.10;;;1.00;;
2976;SDS011;1498;51.500;7.440;2023-01-08T07:07:41;1.40;;;1.00;;
2976;SDS011;1498;51.500;7.440;2023-01-08T07:10:07;1.30;;;1.20;;
2976;SDS011;1498;51.500;7.440;2023-01-08T07:12:32;2.03;;;1.03;;
2976;SDS011;1498;51.500;7.440;2023-01-08T07:14:58;2.70;;;1.47;;
2976;SDS011;1498;51.500;7.440;2023-01-08T07:17:24;4.00;;;1.10;;
2976;SDS011;1498;51.500;7.440;2023-01-08T07:19:49;1.60;;;0.93;;
2976;SDS011;1498;51.500;7.440;2023-01-08T07:22:15;2.43;;;1.30;;
2976;SDS011;1498;51.500;7.440;2023-01-08T07:24:40;2.73;;;1.23;;
2976;SDS011;1498;51.500;7.440;2023-01-08T07:27:06;1.10;;;1.00;;
2976;SDS011;1498;51.500;7.440;2023-01-08T07:29:31;1.97;;;1.43;;
2976;SDS011;1498;51.500;7.440;2023-01-08T07:31:57;1.47;;;1.20;;
2976;SDS011;1498;51.500;7.440;2023-01-08T07:34:22;2.00;;;0.80;;
2976;SDS011;1498;51.500;7.440;2023-01-08T07:36:48;1.10;;;1.00;;
2976;SDS011;1498;51.500;7.440;2023-01-08T07:39:14;1.33;;;1.10;;
2976;SDS011;1498;51.500;7.440;2023-01-08T07:41:40;1.60;;;1.37;;
2976;SDS011;1498;51.500;7.440;2023-01-08T07:44:05;2.17;;;1.30;;
2976;SDS011;1498;51.500;7.440;2023-01-08T07:46:31;1.60;;;1.47;;
2976;SDS011;1498;51.500;7.440;2023-01-08T07:48:56;1.23;;;0.90;;
2976;SDS011;1498;51.500;7.440;2023-01-08T07:51:23;1.30;;;1.00;;
2976;SDS011;1498;51.500;7.440;2023-01-08T07:53:48;1.23;;;1.10;;
2976;SDS011;1498;51.500;7.440;2023-01-08T07:56:15;1.70;;;0.90;;
2976;SDS011;1498;51.500;7.440;2023-01-08T07:58:40;3.93;;;1.50;;
2976;SDS011;1498;51.500;7.440;2023-01-08T08:01:07;2.87;;;0.93;;
2976;SDS011;1498;51.500;7.440;2023-01-08T08:03:34;1.00;;;0.70;;
2976;SDS011;1498;51.500;7.440;2023-01-08T08:05:59;1.40;;;1.07;;
2976;SDS011;1498;51.500;7.440;2023-01-08T08:08:25;1.40;;;0.87;;
2976;SDS011;1498;51.500;7.440;2023-01-08T08:10:50;1.50;;;0.80;;
2976;SDS011;1498;51.500;7.440;2023-01-08T08:13:16;1.63;;;0.87;;
2976;SDS011;1498;51.500;7.440;2023-01-08T08:15:42;1.00;;;0.70;;
2976;SDS011;1498;51.500;7.440;2023-01-08T08:18:07;1.00;;;0.67;;
2976;SDS011;1498;51.500;7.440;2023-01-08T08:20:33;1.50;;;0.80;;
2976;SDS011;1498;51.500;7.440;2023-01-08T08:22:59;3.10;;;1.00;;
2976;SDS011;1498;51.500;7.440;2023-01-08T08:25:30;1.40;;;1.00;;
2976;SDS011;1498;51.500;7.440;2023-01-08T08:27:59;1.97;;;1.00;;
2976;SDS011;1498;51.500;7.440;2023-01-08T08:30:26;1.67;;;0.97;;
2976;SDS011;1498;51.500;7.440;2023-01-08T08:32:52;2.30;;;0.80;;
2976;SDS011;1498;51.500;7.440;2023-01-08T08:35:19;1.10;;;0.80;;
2976;SDS011;1498;51.500;7.440;2023-01-08T08:37:45;1.37;;;1.03;;
2976;SDS011;1498;51.500;7.440;2023-01-08T08:40:11;1.80;;;1.30;;
2976;SDS011;1498;51.500;7.440;2023-01-08T08:42:37;6.63;;;1.40;;
2976;SDS011;1498;51.500;7.440;2023-01-08T08:45:02;3.47;;;1.80;;
2976;SDS011;1498;51.500;7.440;2023-01-08T08:47:28;2.10;;;1.10;;
2976;SDS011;1498;51.500;7.440;2023-01-08T08:49:54;3.80;;;2.03;;
2976;SDS011;1498;51.500;7.440;2023-01-08T08:52:19;5.90;;;2.27;;
2976;SDS011;1498;51.500;7.440;2023-01-08T08:54:45;5.83;;;1.60;;
2976;SDS011;1498;51.500;7.440;2023-01-08T08:57:11;3.80;;;1.70;;
2976;SDS011;1498;51.500;7.440;2023-01-08T08:59:36;2.50;;;1.30;;
2976;SDS011;1498;51.500;7.440;2023-01-08T09:02:02;5.27;;;2.20;;
2976;SDS011;1498;51.500;7.440;2023-01-08T09:04:29;2.60;;;1.43;;
2976;SDS011;1498;51.500;7.440;2023-01-08T09:06:57;5.17;;;1.70;;
2976;SDS011;1498;51.500;7.440;2023-01-08T09:09:23;4.10;;;1.33;;
2976;SDS011;1498;51.500;7.440;2023-01-08T09:11:49;7.37;;;1.90;;
2976;SDS011;1498;51.500;7.440;2023-01-08T09:14:15;7.40;;;1.20;;
2976;SDS011;1498;51.500;7.440;2023-01-08T09:16:40;7.33;;;2.17;;
2976;SDS011;1498;51.500;7.440;2023-01-08T09:19:06;6.87;;;1.77;;
2976;SDS011;1498;51.500;7.440;2023-01-08T09:21:32;7.53;;;2.20;;
2976;SDS011;1498;51.500;7.440;2023-01-08T09:23:58;7.23;;;1.77;;
2976;SDS011;1498;51.500;7.440;2023-01-08T09:26:23;12.53;;;2.47;;
2976;SDS011;1498;51.500;7.440;2023-01-08T09:28:52;9.50;;;3.07;;
2976;SDS011;1498;51.500;7.440;2023-01-08T09:31:18;8.23;;;2.47;;
2976;SDS011;1498;51.500;7.440;2023-01-08T09:33:43;6.10;;;2.20;;
2976;SDS011;1498;51.500;7.440;2023-01-08T09:36:12;3.00;;;1.70;;
2976;SDS011;1498;51.500;7.440;2023-01-08T09:38:37;6.37;;;3.10;;
2976;SDS011;1498;51.500;7.440;2023-01-08T09:41:04;6.63;;;3.10;;
2976;SDS011;1498;51.500;7.440;2023-01-08T09:43:33;6.03;;;1.70;;
2976;SDS011;1498;51.500;7.440;2023-01-08T09:46:02;4.20;;;1.80;;
2976;SDS011;1498;51.500;7.440;2023-01-08T09:48:35;3.30;;;2.30;;
2976;SDS011;1498;51.500;7.440;2023-01-08T09:51:02;7.40;;;1.60;;
2976;SDS011;1498;51.500;7.440;2023-01-08T09:53:28;5.30;;;1.57;;
2976;SDS011;1498;51.500;7.440;2023-01-08T09:55:58;3.10;;;1.20;;
2976;SDS011;1498;51.500;7.440;2023-01-08T10:01:03;9.93;;;2.60;;
2976;SDS011;1498;51.500;7.440;2023-01-08T10:03:30;5.77;;;2.30;;
2976;SDS011;1498;51.500;7.440;2023-01-08T10:06:10;4.20;;;1.63;;
2976;SDS011;1498;51.500;7.440;2023-01-08T10:08:38;9.07;;;2.40;;
2976;SDS011;1498;51.500;7.440;2023-01-08T10:11:04;6.80;;;1.80;;
2976;SDS011;1498;51.500;7.440;2023-01-08T10:13:32;5.70;;;1.73;;
2976;SDS011;1498;51.500;7.440;2023-01-08T10:15:59;8.30;;;1.70;;
2976;SDS011;1498;51.500;7.440;2023-01-08T10:18:25;5.73;;;1.60;;
2976;SDS011;1498;51.500;7.440;2023-01-08T10:20:52;9.10;;;2.27;;
2976;SDS011;1498;51.500;7.440;2023-01-08T10:23:18;2.43;;;1.73;;
2976;SDS011;1498;51.500;7.440;2023-01-08T10:28:17;3.90;;;1.50;;
2976;SDS011;1498;51.500;7.440;2023-01-08T10:30:46;9.90;;;1.60;;
2976;SDS011;1498;51.500;7.440;2023-01-08T10:33:14;4.07;;;1.43;;
2976;SDS011;1498;51.500;7.440;2023-01-08T10:35:58;5.37;;;2.23;;
2976;SDS011;1498;51.500;7.440;2023-01-08T10:38:29;7.30;;;1.70;;
2976;SDS011;1498;51.500;7.440;2023-01-08T10:40:57;3.50;;;1.70;;
2976;SDS011;1498;51.500;7.440;2023-01-08T10:43:29;7.03;;;2.20;;
2976;SDS011;1498;51.500;7.440;2023-01-08T10:45:59;2.53;;;1.30;;
2976;SDS011;1498;51.500;7.440;2023-01-08T10:48:29;4.13;;;1.20;;
2976;SDS011;1498;51.500;7.440;2023-01-08T10:53:44;4.10;;;1.40;;
2976;SDS011;1498;51.500;7.440;2023-01-08T10:56:20;4.50;;;2.20;;
2976;SDS011;1498;51.500;7.440;2023-01-08T10:58:47;5.07;;;1.40;;
2976;SDS011;1498;51.500;7.440;2023-01-08T11:01:17;4.27;;;1.63;;
2976;SDS011;1498;51.500;7.440;2023-01-08T11:03:52;1.70;;;1.60;;
2976;SDS011;1498;51.500;7.440;2023-01-08T11:06:23;4.03;;;1.63;;
2976;SDS011;1498;51.500;7.440;2023-01-08T11:08:52;4.43;;;1.30;;
2976;SDS011;1498;51.500;7.440;2023-01-08T11:11:20;4.90;;;1.30;;
2976;SDS011;1498;51.500;7.440;2023-01-08T11:13:53;1.73;;;1.00;;
2976;SDS011;1498;51.500;7.440;2023-01-08T11:16:29;5.13;;;1.63;;
2976;SDS011;1498;51.500;7.440;2023-01-08T11:19:00;3.97;;;1.10;;
2976;SDS011;1498;51.500;7.440;2023-01-08T11:21:27;5.67;;;1.70;;
2976;SDS011;1498;51.500;7.440;2023-01-08T11:24:01;3.77;;;1.40;;
2976;SDS011;1498;51.500;7.440;2023-01-08T11:26:35;4.57;;;1.70;;
2976;SDS011;1498;51.500;7.440;2023-01-08T11:29:17;3.33;;;1.40;;
2976;SDS011;1498;51.500;7.440;2023-01-08T11:31:53;3.30;;;1.53;;
2976;SDS011;1498;51.500;7.440;2023-01-08T11:37:21;6.50;;;1.27;;
2976;SDS011;1498;51.500;7.440;2023-01-08T11:39:51;2.60;;;1.50;;
2976;SDS011;1498;51.500;7.440;2023-01-08T11:42:28;6.73;;;1.67;;
2976;SDS011;1498;51.500;7.440;2023-01-08T11:45:24;3.57;;;1.60;;
2976;SDS011;1498;51.500;7.440;2023-01-08T11:48:02;2.07;;;1.40;;
2976;SDS011;1498;51.500;7.440;2023-01-08T11:53:42;2.93;;;1.43;;
2976;SDS011;1498;51.500;7.440;2023-01-08T11:59:23;1.80;;;1.23;;
2976;SDS011;1498;51.500;7.440;2023-01-08T12:10:25;2.80;;;1.20;;
2976;SDS011;1498;51.500;7.440;2023-01-08T12:21:16;4.90;;;1.50;;
2976;SDS011;1498;51.500;7.440;2023-01-08T12:24:10;1.30;;;0.80;;
2976;SDS011;1498;51.500;7.440;2023-01-08T12:26:56;2.10;;;1.37;;
2976;SDS011;1498;51.500;7.440;2023-01-08T12:32:29;2.67;;;1.00;;
2976;SDS011;1498;51.500;7.440;2023-01-08T12:35:06;1.83;;;1.17;;
2976;SDS011;1498;51.500;7.440;2023-01-08T12:37:51;2.37;;;1.13;;
2976;SDS011;1498;51.500;7.440;2023-01-08T12:40:44;1.60;;;1.00;;
2976;SDS011;1498;51.500;7.440;2023-01-08T12:43:17;4.83;;;1.17;;
2976;SDS011;1498;51.500;7.440;2023-01-08T12:45:49;2.43;;;1.03;;
2976;SDS011;1498;51.500;7.440;2023-01-08T12:48:25;2.00;;;1.40;;
2976;SDS011;1498;51.500;7.440;2023-01-08T12:51:06;1.20;;;0.97;;
2976;SDS011;1498;51.500;7.440;2023-01-08T12:59:38;1.30;;;1.10;;
2976;SDS011;1498;51.500;7.440;2023-01-08T13:04:58;1.40;;;0.90;;
2976;SDS011;1498;51.500;7.440;2023-01-08T13:07:56;1.50;;;1.07;;
2976;SDS011;1498;51.500;7.440;2023-01-08T13:10:31;1.87;;;1.03;;
2976;SDS011;1498;51.500;7.440;2023-01-08T13:13:00;1.93;;;1.27;;
2976;SDS011;1498;51.500;7.440;2023-01-08T13:15:28;5.83;;;1.27;;
2976;SDS011;1498;51.500;7.440;2023-01-08T13:17:56;1.93;;;1.20;;
2976;SDS011;1498;51.500;7.440;2023-01-08T13:20:27;4.70;;;1.10;;
2976;SDS011;1498;51.500;7.440;2023-01-08T13:22:56;1.10;;;0.73;;
2976;SDS011;1498;51.500;7.440;2023-01-08T13:33:49;1.20;;;0.97;;
2976;SDS011;1498;51.500;7.440;2023-01-08T13:39:19;1.60;;;1.10;;
2976;SDS011;1498;51.500;7.440;2023-01-08T13:44:50;2.13;;;1.07;;
2976;SDS011;1498;51.500;7.440;2023-01-08T13:47:30;3.50;;;2.00;;
2976;SDS011;1498;51.500;7.440;2023-01-08T13:49:58;1.63;;;0.97;;
2976;SDS011;1498;51.500;7.440;2023-01-08T13:52:41;1.40;;;1.00;;
2976;SDS011;1498;51.500;7.440;2023-01-08T13:55:44;2.40;;;1.30;;
2976;SDS011;1498;51.500;7.440;2023-01-08T13:58:11;1.67;;;1.30;;
2976;SDS011;1498;51.500;7.440;2023-01-08T14:00:48;1.63;;;1.10;;
2976;SDS011;1498;51.500;7.440;2023-01-08T14:03:26;2.50;;;1.10;;
2976;SDS011;1498;51.500;7.440;2023-01-08T14:08:51;1.03;;;0.70;;
2976;SDS011;1498;51.500;7.440;2023-01-08T14:11:17;1.33;;;1.23;;
2976;SDS011;1498;51.500;7.440;2023-01-08T14:13:46;2.80;;;0.90;;
2976;SDS011;1498;51.500;7.440;2023-01-08T14:16:13;1.20;;;1.10;;
2976;SDS011;1498;51.500;7.440;2023-01-08T14:18:44;3.30;;;1.10;;
2976;SDS011;1498;51.500;7.440;2023-01-08T14:21:13;1.97;;;1.13;;
2976;SDS011;1498;51.500;7.440;2023-01-08T14:23:40;2.93;;;1.30;;
2976;SDS011;1498;51.500;7.440;2023-01-08T14:26:15;1.90;;;1.07;;
2976;SDS011;1498;51.500;7.440;2023-01-08T14:29:00;2.37;;;1.10;;
2976;SDS011;1498;51.500;7.440;2023-01-08T14:31:27;5.40;;;1.13;;
2976;SDS011;1498;51.500;7.440;2023-01-08T14:33:53;2.63;;;1.30;;
2976;SDS011;1498;51.500;7.440;2023-01-08T14:36:21;1.50;;;1.00;;
2976;SDS011;1498;51.500;7.440;2023-01-08T14:38:48;1.40;;;0.90;;
2976;SDS011;1498;51.500;7.440;2023-01-08T14:41:18;1.10;;;0.90;;
2976;SDS011;1498;51.500;7.440;2023-01-08T14:44:17;1.10;;;0.90;;
2976;SDS011;1498;51.500;7.440;2023-01-08T14:46:44;1.80;;;1.57;;
2976;SDS011;1498;51.500;7.440;2023-01-08T14:49:21;3.03;;;1.70;;
2976;SDS011;1498;51.500;7.440;2023-01-08T14:51:59;1.50;;;1.10;;
2976;SDS011;1498;51.500;7.440;2023-01-08T14:54:30;3.63;;;1.30;;
2976;SDS011;1498;51.500;7.440;2023-01-08T14:56:58;2.30;;;1.20;;
2976;SDS011;1498;51.500;7.440;2023-01-08T14:59:27;3.10;;;1.30;;
2976;SDS011;1498;51.500;7.440;2023-01-08T15:01:57;2.50;;;1.10;;
2976;SDS011;1498;51.500;7.440;2023-01-08T15:04:25;1.60;;;1.50;;
2976;SDS011;1498;51.500;7.440;2023-01-08T15:07:02;1.10;;;0.80;;
2976;SDS011;1498;51.500;7.440;2023-01-08T15:09:33;3.07;;;1.80;;
2976;SDS011;1498;51.500;7.440;2023-01-08T15:12:05;1.70;;;0.93;;
2976;SDS011;1498;51.500;7.440;2023-01-08T15:14:32;2.33;;;1.37;;
2976;SDS011;1498;51.500;7.440;2023-01-08T15:17:08;2.13;;;1.43;;
2976;SDS011;1498;51.500;7.440;2023-01-08T15:19:41;1.43;;;0.90;;
2976;SDS011;1498;51.500;7.440;2023-01-08T15:22:13;1.80;;;1.30;;
2976;SDS011;1498;51.500;7.440;2023-01-08T15:24:43;1.10;;;0.87;;
2976;SDS011;1498;51.500;7.440;2023-01-08T15:27:22;2.20;;;0.83;;
2976;SDS011;1498;51.500;7.440;2023-01-08T15:29:52;1.93;;;0.93;;
2976;SDS011;1498;51.500;7.440;2023-01-08T15:32:27;1.70;;;1.10;;
2976;SDS011;1498;51.500;7.440;2023-01-08T15:35:01;3.90;;;1.23;;
2976;SDS011;1498;51.500;7.440;2023-01-08T15:37:40;1.90;;;1.13;;
2976;SDS011;1498;51.500;7.440;2023-01-08T15:40:06;1.23;;;0.83;;
2976;SDS011;1498;51.500;7.440;2023-01-08T15:42:35;1.30;;;1.00;;
2976;SDS011;1498;51.500;7.440;2023-01-08T15:45:20;1.30;;;1.13;;
2976;SDS011;1498;51.500;7.440;2023-01-08T15:47:49;6.50;;;1.07;;
2976;SDS011;1498;51.500;7.440;2023-01-08T15:50:15;3.57;;;1.00;;
2976;SDS011;1498;51.500;7.440;2023-01-08T15:52:41;1.30;;;0.80;;
2976;SDS011;1498;51.500;7.440;2023-01-08T15:55:13;4.13;;;1.00;;
2976;SDS011;1498;51.500;7.440;2023-01-08T15:57:41;1.60;;;1.00;;
2976;SDS011;1498;51.500;7.440;2023-01-08T16:00:08;3.53;;;1.50;;
2976;SDS011;1498;51.500;7.440;2023-01-08T16:02:41;2.43;;;1.40;;
2976;SDS011;1498;51.500;7.440;2023-01-08T16:05:08;1.40;;;1.13;;
2976;SDS011;1498;51.500;7.440;2023-01-08T16:07:34;2.07;;;1.47;;
2976;SDS011;1498;51.500;7.440;2023-01-08T16:10:00;2.67;;;1.30;;
2976;SDS011;1498;51.500;7.440;2023-01-08T16:12:26;3.97;;;2.07;;
2976;SDS011;1498;51.500;7.440;2023-01-08T16:14:51;4.13;;;2.50;;
2976;SDS011;1498;51.500;7.440;2023-01-08T16:17:17;3.17;;;1.97;;
2976;SDS011;1498;51.500;7.440;2023-01-08T16:19:42;2.43;;;1.70;;
2976;SDS011;1498;51.500;7.440;2023-01-08T16:22:08;2.63;;;1.20;;
2976;SDS011;1498;51.500;7.440;2023-01-08T16:24:33;1.73;;;1.27;;
2976;SDS011;1498;51.500;7.440;2023-01-08T16:26:59;2.17;;;1.00;;
2976;SDS011;1498;51.500;7.440;2023-01-08T16:29:25;2.50;;;1.27;;
2976;SDS011;1498;51.500;7.440;2023-01-08T16:31:51;2.80;;;1.33;;
2976;SDS011;1498;51.500;7.440;2023-01-08T16:34:18;2.67;;;1.80;;
2976;SDS011;1498;51.500;7.440;2023-01-08T16:36:43;4.27;;;1.13;;
2976;SDS011;1498;51.500;7.440;2023-01-08T16:39:09;2.07;;;1.33;;
2976;SDS011;1498;51.500;7.440;2023-01-08T16:41:34;1.70;;;1.00;;
2976;SDS011;1498;51.500;7.440;2023-01-08T16:44:00;1.33;;;1.20;;
2976;SDS011;1498;51.500;7.440;2023-01-08T16:46:26;2.83;;;1.57;;
2976;SDS011;1498;51.500;7.440;2023-01-08T16:48:53;3.30;;;1.60;;
2976;SDS011;1498;51.500;7.440;2023-01-08T16:51:19;3.60;;;1.70;;
2976;SDS011;1498;51.500;7.440;2023-01-08T16:53:45;3.20;;;1.33;;
2976;SDS011;1498;51.500;7.440;2023-01-08T16:56:11;2.80;;;1.50;;
2976;SDS011;1498;51.500;7.440;2023-01-08T16:58:36;2.13;;;1.50;;
2976;SDS011;1498;51.500;7.440;2023-01-08T17:01:05;2.00;;;1.70;;
2976;SDS011;1498;51.500;7.440;2023-01-08T17:03:33;2.40;;;1.87;;
2976;SDS011;1498;51.500;7.440;2023-01-08T17:06:03;1.83;;;1.40;;
2976;SDS011;1498;51.500;7.440;2023-01-08T17:08:30;2.33;;;1.20;;
2976;SDS011;1498;51.500;7.440;2023-01-08T17:10:55;4.27;;;1.60;;
2976;SDS011;1498;51.500;7.440;2023-01-08T17:13:21;2.27;;;1.40;;
2976;SDS011;1498;51.500;7.440;2023-01-08T17:15:46;1.90;;;1.77;;
2976;SDS011;1498;51.500;7.440;2023-01-08T17:18:12;1.83;;;1.30;;
2976;SDS011;1498;51.500;7.440;2023-01-08T17:20:37;2.67;;;1.20;;
2976;SDS011;1498;51.500;7.440;2023-01-08T17:23:03;1.73;;;1.37;;
2976;SDS011;1498;51.500;7.440;2023-01-08T17:25:28;1.30;;;1.00;;
2976;SDS011;1498;51.500;7.440;2023-01-08T17:27:54;3.60;;;1.80;;
2976;SDS011;1498;51.500;7.440;2023-01-08T17:30:19;3.43;;;1.30;;
2976;SDS011;1498;51.500;7.440;2023-01-08T17:32:45;2.70;;;2.20;;
2976;SDS011;1498;51.500;7.440;2023-01-08T17:35:10;4.53;;;2.70;;
2976;SDS011;1498;51.500;7.440;2023-01-08T17:37:36;3.90;;;1.93;;
2976;SDS011;1498;51.500;7.440;2023-01-08T17:40:02;3.50;;;1.73;;
2976;SDS011;1498;51.500;7.440;2023-01-08T17:42:28;3.30;;;2.83;;
2976;SDS011;1498;51.500;7.440;2023-01-08T17:44:57;4.47;;;3.70;;
2976;SDS011;1498;51.500;7.440;2023-01-08T17:47:26;3.63;;;3.00;;
2976;SDS011;1498;51.500;7.440;2023-01-08T17:49:53;2.13;;;1.93;;
2976;SDS011;1498;51.500;7.440;2023-01-08T17:52:20;3.20;;;2.57;;
2976;SDS011;1498;51.500;7.440;2023-01-08T17:54:47;5.23;;;2.07;;
2976;SDS011;1498;51.500;7.440;2023-01-08T17:57:13;2.13;;;1.60;;
2976;SDS011;1498;51.500;7.440;2023-01-08T17:59:39;2.77;;;2.00;;
2976;SDS011;1498;51.500;7.440;2023-01-08T18:02:05;3.63;;;2.37;;
2976;SDS011;1498;51.500;7.440;2023-01-08T18:04:34;2.17;;;1.67;;
2976;SDS011;1498;51.500;7.440;2023-01-08T18:06:59;3.00;;;1.87;;
2976;SDS011;1498;51.500;7.440;2023-01-08T18:09:25;2.20;;;1.50;;
2976;SDS011;1498;51.500;7.440;2023-01-08T18:11:51;3.03;;;1.90;;
2976;SDS011;1498;51.500;7.440;2023-01-08T18:14:16;4.13;;;1.80;;
2976;SDS011;1498;51.500;7.440;2023-01-08T18:16:42;3.90;;;1.97;;
2976;SDS011;1498;51.500;7.440;2023-01-08T18:19:09;1.60;;;1.40;;
2976;SDS011;1498;51.500;7.440;2023-01-08T18:21:35;3.30;;;2.20;;
2976;SDS011;1498;51.500;7.440;2023-01-08T18:24:01;5.70;;;2.47;;
2976;SDS011;1498;51.500;7.440;2023-01-08T18:26:27;2.20;;;1.63;;
2976;SDS011;1498;51.500;7.440;2023-01-08T18:28:53;2.17;;;1.70;;
2976;SDS011;1498;51.500;7.440;2023-01-08T18:31:19;1.63;;;1.40;;
2976;SDS011;1498;51.500;7.440;2023-01-08T18:33:47;1.83;;;1.53;;
2976;SDS011;1498;51.500;7.440;2023-01-08T18:36:15;3.60;;;2.07;;
2976;SDS011;1498;51.500;7.440;2023-01-08T18:38:41;2.43;;;2.10;;
2976;SDS011;1498;51.500;7.440;2023-01-08T18:41:08;3.53;;;2.20;;
2976;SDS011;1498;51.500;7.440;2023-01-08T18:43:36;3.40;;;1.73;;
2976;SDS011;1498;51.500;7.440;2023-01-08T18:46:02;4.83;;;2.73;;
2976;SDS011;1498;51.500;7.440;2023-01-08T18:48:30;2.97;;;2.23;;
2976;SDS011;1498;51.500;7.440;2023-01-08T18:50:56;4.00;;;2.37;;
2976;SDS011;1498;51.500;7.440;2023-01-08T18:53:27;1.90;;;1.60;;
2976;SDS011;1498;51.500;7.440;2023-01-08T18:55:53;4.70;;;2.43;;
2976;SDS011;1498;51.500;7.440;2023-01-08T18:58:21;2.40;;;2.20;;
2976;SDS011;1498;51.500;7.440;2023-01-08T19:00:47;3.50;;;1.80;;
2976;SDS011;1498;51.500;7.440;2023-01-08T19:03:12;2.67;;;1.43;;
2976;SDS011;1498;51.500;7.440;2023-01-08T19:05:38;5.93;;;2.60;;
2976;SDS011;1498;51.500;7.440;2023-01-08T19:08:07;4.53;;;2.40;;
2976;SDS011;1498;51.500;7.440;2023-01-08T19:10:34;5.43;;;4.00;;
2976;SDS011;1498;51.500;7.440;2023-01-08T19:13:04;2.97;;;2.70;;
2976;SDS011;1498;51.500;7.440;2023-01-08T19:15:30;3.17;;;1.70;;
2976;SDS011;1498;51.500;7.440;2023-01-08T19:17:56;4.30;;;1.83;;
2976;SDS011;1498;51.500;7.440;2023-01-08T19:20:21;2.70;;;1.67;;
2976;SDS011;1498;51.500;7.440;2023-01-08T19:22:47;5.57;;;1.63;;
2976;SDS011;1498;51.500;7.440;2023-01-08T19:25:12;4.13;;;2.30;;
2976;SDS011;1498;51.500;7.440;2023-01-08T19:27:39;2.63;;;2.43;;
2976;SDS011;1498;51.500;7.440;2023-01-08T19:30:04;2.77;;;2.30;;
2976;SDS011;1498;51.500;7.440;2023-01-08T19:32:31;6.53;;;2.43;;
2976;SDS011;1498;51.500;7.440;2023-01-08T19:34:58;3.23;;;2.30;;
2976;SDS011;1498;51.500;7.440;2023-01-08T19:37:24;5.53;;;1.60;;
2976;SDS011;1498;51.500;7.440;2023-01-08T19:39:50;4.80;;;3.00;;
2976;SDS011;1498;51.500;7.440;2023-01-08T19:42:16;3.90;;;2.40;;
2976;SDS011;1498;51.500;7.440;2023-01-08T19:45:00;3.23;;;1.60;;
2976;SDS011;1498;51.500;7.440;2023-01-08T19:47:26;5.03;;;2.80;;
2976;SDS011;1498;51.500;7.440;2023-01-08T19:49:51;3.00;;;1.53;;
2976;SDS011;1498;51.500;7.440;2023-01-08T19:52:17;2.60;;;1.93;;
2976;SDS011;1498;51.500;7.440;2023-01-08T19:54:44;4.90;;;2.80;;
2976;SDS011;1498;51.500;7.440;2023-01-08T19:57:10;2.30;;;2.10;;
2976;SDS011;1498;51.500;7.440;2023-01-08T19:59:35;4.90;;;1.97;;
2976;SDS011;1498;51.500;7.440;2023-01-08T20:02:01;2.83;;;1.80;;
2976;SDS011;1498;51.500;7.440;2023-01-08T20:04:27;1.73;;;1.37;;
2976;SDS011;1498;51.500;7.440;2023-01-08T20:06:54;2.03;;;1.50;;
2976;SDS011;1498;51.500;7.440;2023-01-08T20:09:21;5.20;;;1.60;;
2976;SDS011;1498;51.500;7.440;2023-01-08T20:11:47;3.30;;;1.80;;
2976;SDS011;1498;51.500;7.440;2023-01-08T20:14:13;3.57;;;2.07;;
2976;SDS011;1498;51.500;7.440;2023-01-08T20:16:38;3.33;;;2.70;;
2976;SDS011;1498;51.500;7.440;2023-01-08T20:19:04;12.13;;;3.50;;
2976;SDS011;1498;51.500;7.440;2023-01-08T20:21:31;2.90;;;1.50;;
2976;SDS011;1498;51.500;7.440;2023-01-08T20:24:02;1.63;;;1.37;;
2976;SDS011;1498;51.500;7.440;2023-01-08T20:26:33;4.37;;;1.60;;